Time;durP1;ratioP1;P1;durP2;ratioP2;P2;SDS_P1;SDS_P2;PMS_P1;PMS_P2;Temp;Humidity;BMP_temperature;BMP_pressure;BME280_temperature;BME280_humidity;BME280_pressure;Samples;Min_cycle;Max_cycle;Signal;HPM_P1;HPM_P2
2021/12/31 00:01:18;;;;;;;24.50;7.42;;;;;;;7.12;100.00;98666.19;2144750;83;21019;-63
2021/12/31 00:04:18;;;;;;;22.02;7.12;;;;;;;7.15;100.00;98664.73;2144922;83;21060;-62
2021/12/31 00:07:19;;;;;;;22.95;8.20;;;;;;;7.18;100.00;98672.88;2144973;83;21034;-63
2021/12/31 00:10:19;;;;;;;22.05;7.65;;;;;;;7.20;100.00;98674.96;2144745;83;21023;-62
2021/12/31 00:13:19;;;;;;;21.20;6.90;;;;;;;7.22;100.00;98669.19;2144915;83;21016;-62
2021/12/31 00:16:20;;;;;;;22.82;7.60;;;;;;;7.24;100.00;98672.55;2145192;83;20979;-62
2021/12/31 00:19:21;;;;;;;21.82;7.47;;;;;;;7.25;100.00;98671.64;2145043;83;21034;-63
2021/12/31 00:22:47;;;;;;;21.20;7.73;;;;;;;7.26;100.00;98677.25;2145166;83;21068;-63
2021/12/31 00:25:24;;;;;;;20.92;6.75;;;;;;;7.29;100.00;98678.41;2118661;83;21031;-62
2021/12/31 00:28:25;;;;;;;23.12;7.42;;;;;;;7.33;100.00;98675.20;2144751;83;21562;-61
2021/12/31 00:31:25;;;;;;;25.92;9.35;;;;;;;7.34;100.00;98677.73;2141470;83;21289;-62
2021/12/31 00:34:25;;;;;;;29.87;10.48;;;;;;;7.35;100.00;98678.09;2138311;83;20996;-63
2021/12/31 00:37:26;;;;;;;27.95;10.20;;;;;;;7.37;100.00;98676.70;2138430;83;21055;-62
2021/12/31 00:40:27;;;;;;;31.97;11.93;;;;;;;7.38;100.00;98678.41;2137782;83;21068;-62
2021/12/31 00:43:28;;;;;;;30.37;10.98;;;;;;;7.41;100.00;98684.77;2148106;83;20975;-63
2021/12/31 00:46:28;;;;;;;26.00;8.75;;;;;;;7.42;100.00;98685.16;2131430;84;21549;-62
2021/12/31 00:49:28;;;;;;;25.40;8.78;;;;;;;7.45;100.00;98685.83;2131342;84;21040;-63
2021/12/31 00:52:29;;;;;;;22.17;7.40;;;;;;;7.48;100.00;98685.31;2131634;84;21016;-62
2021/12/31 00:55:29;;;;;;;25.05;8.50;;;;;;;7.51;100.00;98687.77;2132075;84;21032;-63
2021/12/31 00:58:30;;;;;;;24.52;8.18;;;;;;;7.53;100.00;98685.91;2144896;83;21467;-61
2021/12/31 01:01:31;;;;;;;23.67;7.12;;;;;;;7.56;100.00;98691.83;2144969;83;20952;-62
2021/12/31 01:04:32;;;;;;;25.35;8.55;;;;;;;7.60;100.00;98693.37;2145106;83;21060;-62
2021/12/31 01:07:33;;;;;;;25.95;10.40;;;;;;;7.66;100.00;98688.73;2144449;83;21028;-62
2021/12/31 01:10:33;;;;;;;25.05;8.68;;;;;;;7.69;100.00;98685.52;2148249;83;20983;-63
2021/12/31 01:13:49;;;;;;;22.10;6.85;;;;;;;7.71;100.00;98678.91;2131458;83;21093;-62
2021/12/31 01:16:40;;;;;;;20.08;6.15;;;;;;;7.75;100.00;98692.20;2105537;84;20981;-62
2021/12/31 01:22:41;;;;;;;;;;;;;;;7.85;100.00;98695.18;2108116;84;21037;-62
2021/12/31 01:25:42;;;;;;;19.02;5.70;;;;;;;7.84;100.00;98694.31;2131493;83;20105;-62
2021/12/31 01:28:42;;;;;;;19.75;5.50;;;;;;;7.86;100.00;98696.41;2131595;84;21028;-63
2021/12/31 01:31:43;;;;;;;19.25;5.37;;;;;;;7.91;100.00;98693.08;2131221;83;21052;-62
2021/12/31 01:34:43;;;;;;;18.90;5.10;;;;;;;7.94;100.00;98694.69;2131440;84;21464;-63
2021/12/31 01:37:44;;;;;;;16.75;5.00;;;;;;;7.96;100.00;98701.53;2131275;84;21532;-62
2021/12/31 01:40:44;;;;;;;18.32;5.08;;;;;;;8.02;100.00;98696.92;2131678;84;20946;-62
2021/12/31 01:43:45;;;;;;;15.70;5.05;;;;;;;8.04;100.00;98699.80;2131424;84;20977;-63
2021/12/31 01:46:45;;;;;;;16.60;4.78;;;;;;;8.06;100.00;98710.17;2131529;84;21028;-62
2021/12/31 01:49:55;;;;;;;16.73;5.20;;;;;;;8.10;100.00;98700.81;2131805;84;20980;-62
2021/12/31 01:52:48;;;;;;;15.35;4.80;;;;;;;8.17;100.00;98708.31;2106014;84;21021;-62
2021/12/31 01:55:49;;;;;;;15.85;4.55;;;;;;;8.19;100.00;98708.62;2131448;84;20965;-63
2021/12/31 01:58:49;;;;;;;15.25;4.97;;;;;;;8.22;100.00;98698.48;2131660;84;20957;-62
2021/12/31 02:01:49;;;;;;;20.00;6.35;;;;;;;8.25;100.00;98696.53;2131417;84;21016;-62
2021/12/31 02:04:50;;;;;;;18.75;6.25;;;;;;;8.28;100.00;98698.97;2131442;84;20996;-62
2021/12/31 02:07:51;;;;;;;19.00;5.92;;;;;;;8.29;100.00;98703.28;2131282;84;21551;-63
2021/12/31 02:10:51;;;;;;;17.65;5.40;;;;;;;8.33;100.00;98698.28;2131657;84;21049;-62
2021/12/31 02:13:52;;;;;;;21.52;5.72;;;;;;;8.35;100.00;98699.50;2131564;84;21040;-63
2021/12/31 02:16:52;;;;;;;17.98;6.10;;;;;;;8.35;100.00;98698.63;2131667;84;20945;-63
2021/12/31 02:19:54;;;;;;;16.97;5.67;;;;;;;8.33;100.00;98702.20;2131481;84;21064;-62
2021/12/31 02:23:05;;;;;;;19.85;6.42;;;;;;;8.33;100.00;98704.81;2144771;83;21036;-63
2021/12/31 02:25:57;;;;;;;;;;;;;;;8.33;100.00;98711.34;2120657;83;21005;-63
2021/12/31 02:28:58;;;;;;;24.30;9.85;;;;;;;8.32;100.00;98705.73;2145066;83;20129;-63
2021/12/31 02:31:59;;;;;;;21.62;8.23;;;;;;;8.31;100.00;98710.56;2144481;83;20973;-63
2021/12/31 02:34:59;;;;;;;20.23;6.95;;;;;;;8.32;100.00;98712.73;2145063;83;21043;-63
2021/12/31 02:38:00;;;;;;;20.70;7.50;;;;;;;8.29;100.00;98722.88;2144773;83;21494;-63
2021/12/31 02:41:00;;;;;;;22.95;7.97;;;;;;;8.31;100.00;98718.88;2144800;83;21510;-63
2021/12/31 02:44:01;;;;;;;21.65;8.65;;;;;;;8.30;100.00;98723.27;2144773;83;21019;-63
2021/12/31 02:47:04;;;;;;;25.55;9.35;;;;;;;8.31;100.00;98726.24;2145115;83;21070;-63
2021/12/31 02:50:05;;;;;;;25.80;9.78;;;;;;;8.31;100.00;98717.57;2118505;83;21007;-63
2021/12/31 02:53:06;;;;;;;27.48;11.15;;;;;;;8.32;100.00;98726.63;2144560;83;21519;-63
2021/12/31 02:56:06;;;;;;;25.97;11.10;;;;;;;8.35;100.00;98729.55;2144890;83;21004;-63
2021/12/31 02:59:08;;;;;;;26.97;9.93;;;;;;;8.35;100.00;98722.16;2145002;83;21028;-63
2021/12/31 03:02:09;;;;;;;26.15;10.70;;;;;;;8.35;100.00;98718.23;2145119;83;21510;-63
2021/12/31 03:05:09;;;;;;;27.60;10.75;;;;;;;8.35;100.00;98712.56;2144915;83;20965;-62
2021/12/31 03:08:10;;;;;;;25.37;9.90;;;;;;;8.35;100.00;98718.23;2144845;83;20991;-63
2021/12/31 03:11:10;;;;;;;24.60;9.80;;;;;;;8.37;100.00;98717.70;2144660;83;21035;-63
2021/12/31 03:14:11;;;;;;;24.52;9.68;;;;;;;8.39;100.00;98713.23;2144771;83;21462;-63
2021/12/31 03:17:11;;;;;;;25.70;9.93;;;;;;;8.38;100.00;98718.93;2144633;83;21507;-63
2021/12/31 03:20:26;;;;;;;22.90;8.30;;;;;;;8.38;100.00;98718.93;2144366;82;21044;-63
2021/12/31 03:23:17;;;;;;;23.18;7.97;;;;;;;8.38;100.00;98722.02;2118510;83;21071;-63
2021/12/31 03:26:17;;;;;;;21.20;8.65;;;;;;;8.36;100.00;98719.48;2144754;83;21452;-63
2021/12/31 03:29:18;;;;;;;22.52;8.30;;;;;;;8.37;100.00;98716.40;2144590;83;21000;-63
2021/12/31 03:32:18;;;;;;;22.67;8.25;;;;;;;8.37;100.00;98713.31;2144621;83;21000;-63
2021/12/31 03:35:19;;;;;;;22.27;7.58;;;;;;;8.40;100.00;98716.23;2144881;83;21003;-62
2021/12/31 03:38:20;;;;;;;22.93;8.60;;;;;;;8.41;100.00;98725.77;2144875;83;21075;-63
2021/12/31 03:41:20;;;;;;;22.70;7.90;;;;;;;8.44;100.00;98725.59;2144865;83;20988;-63
2021/12/31 03:44:21;;;;;;;21.17;6.53;;;;;;;8.43;100.00;98713.00;2144802;83;20948;-64
2021/12/31 03:47:21;;;;;;;20.08;6.30;;;;;;;8.44;100.00;98722.55;2144613;83;21478;-63
2021/12/31 03:50:21;;;;;;;19.30;6.53;;;;;;;8.44;100.00;98723.84;2144858;83;21499;-63
2021/12/31 03:53:22;;;;;;;21.68;7.17;;;;;;;8.46;100.00;98725.94;2144667;83;21067;-63
2021/12/31 03:56:30;;;;;;;19.90;6.90;;;;;;;8.45;100.00;98726.85;2118302;83;21056;-63
2021/12/31 03:59:27;;;;;;;19.70;6.83;;;;;;;8.45;100.00;98726.02;2118699;83;20964;-62
2021/12/31 04:02:27;;;;;;;20.30;6.95;;;;;;;8.42;100.00;98724.38;2144888;83;20999;-63
2021/12/31 04:05:28;;;;;;;22.62;7.87;;;;;;;8.43;100.00;98728.69;2144927;83;21594;-63
2021/12/31 04:08:28;;;;;;;21.00;7.65;;;;;;;8.45;100.00;98726.02;2144903;83;21483;-62
2021/12/31 04:11:29;;;;;;;24.00;8.63;;;;;;;8.45;100.00;98718.17;2144898;83;21534;-63
2021/12/31 04:14:29;;;;;;;22.20;7.75;;;;;;;8.47;100.00;98718.45;2145045;83;21000;-63
2021/12/31 04:17:30;;;;;;;22.95;7.85;;;;;;;8.47;100.00;98719.76;2145059;83;20964;-63
2021/12/31 04:23:35;;;;;;;21.30;7.33;;;;;;;8.51;100.00;98704.77;2118743;83;21570;-63
2021/12/31 04:26:35;;;;;;;23.57;8.08;;;;;;;8.51;100.00;98704.77;2118762;83;21008;-63
2021/12/31 04:29:35;;;;;;;23.25;8.08;;;;;;;8.54;100.00;98686.77;2145067;83;20999;-63
2021/12/31 04:32:36;;;;;;;24.43;9.35;;;;;;;8.55;100.00;98676.67;2144961;83;21024;-63
2021/12/31 04:35:36;;;;;;;24.95;9.85;;;;;;;8.57;100.00;98674.36;2145049;83;21058;-63
2021/12/31 04:38:37;;;;;;;25.12;8.45;;;;;;;8.57;100.00;98672.22;2145017;83;20988;-63
2021/12/31 04:41:37;;;;;;;23.10;8.88;;;;;;;8.59;100.00;98691.27;2144867;83;20952;-63
2021/12/31 04:44:37;;;;;;;25.02;9.70;;;;;;;8.59;100.00;98702.59;2144825;83;20975;-63
2021/12/31 04:47:38;;;;;;;24.15;8.98;;;;;;;8.57;100.00;98701.81;2144880;83;21478;-63
2021/12/31 04:50:38;;;;;;;25.70;9.35;;;;;;;8.59;100.00;98703.89;2144675;83;21051;-63
2021/12/31 04:53:39;;;;;;;24.00;9.78;;;;;;;8.60;100.00;98706.03;2144797;83;20992;-63
2021/12/31 04:56:40;;;;;;;26.07;10.30;;;;;;;8.62;100.00;98717.23;2145197;83;20984;-63
2021/12/31 04:59:40;;;;;;;25.85;9.70;;;;;;;8.62;100.00;98720.72;2144930;83;20949;-63
2021/12/31 05:02:41;;;;;;;25.35;9.68;;;;;;;8.67;100.00;98721.77;2144884;83;20944;-63
2021/12/31 05:05:41;;;;;;;27.55;10.82;;;;;;;8.65;100.00;98719.70;2144887;83;20987;-63
2021/12/31 05:08:42;;;;;;;25.43;10.63;;;;;;;8.66;100.00;98730.52;2144742;83;21522;-63
2021/12/31 05:11:42;;;;;;;27.75;11.93;;;;;;;8.65;100.00;98731.00;2144726;83;20999;-63
2021/12/31 05:14:44;;;;;;;27.55;10.93;;;;;;;8.68;100.00;98731.30;2144595;83;21039;-63
2021/12/31 05:17:45;;;;;;;27.02;11.10;;;;;;;8.71;100.00;98736.36;2144844;83;21100;-63
2021/12/31 05:20:45;;;;;;;28.05;11.30;;;;;;;8.72;100.00;98738.05;2144866;83;21436;-63
2021/12/31 05:23:46;;;;;;;30.25;12.73;;;;;;;8.76;100.00;98732.18;2144748;83;20980;-63
2021/12/31 05:26:46;;;;;;;28.15;11.73;;;;;;;8.79;100.00;98733.31;2144735;83;21007;-63
2021/12/31 05:29:47;;;;;;;28.07;11.90;;;;;;;8.79;100.00;98732.00;2145017;83;20964;-64
2021/12/31 05:32:47;;;;;;;28.65;12.50;;;;;;;8.80;100.00;98737.15;2144592;83;20999;-63
2021/12/31 05:35:47;;;;;;;30.70;12.98;;;;;;;8.79;100.00;98730.25;2144998;83;20987;-63
2021/12/31 05:38:48;;;;;;;30.40;12.50;;;;;;;8.82;100.00;98737.06;2144709;83;20988;-62
2021/12/31 05:41:48;;;;;;;28.90;12.18;;;;;;;8.85;100.00;98723.84;2144803;83;20980;-63
2021/12/31 05:44:49;;;;;;;28.87;12.50;;;;;;;8.87;100.00;98720.66;2144716;83;21558;-63
2021/12/31 05:47:49;;;;;;;28.52;12.20;;;;;;;8.87;100.00;98721.97;2144758;83;21081;-63
2021/12/31 05:50:50;;;;;;;28.35;12.18;;;;;;;8.88;100.00;98718.44;2144872;83;21068;-64
2021/12/31 05:53:50;;;;;;;28.07;11.33;;;;;;;8.92;100.00;98738.27;2144956;83;21019;-63
2021/12/31 05:56:51;;;;;;;28.73;11.83;;;;;;;8.94;100.00;98727.23;2144823;83;20987;-63
2021/12/31 05:59:51;;;;;;;27.55;12.03;;;;;;;8.97;100.00;98751.08;2144740;83;21004;-63
2021/12/31 06:02:52;;;;;;;26.20;10.75;;;;;;;8.98;100.00;98744.45;2144629;83;21016;-64
2021/12/31 06:05:53;;;;;;;27.40;11.60;;;;;;;9.02;100.00;98739.88;2144395;83;21535;-64
2021/12/31 06:08:53;;;;;;;25.90;10.93;;;;;;;9.04;100.00;98748.50;2144773;83;21538;-63
2021/12/31 06:11:54;;;;;;;25.82;10.65;;;;;;;9.04;100.00;98750.25;2144603;82;21039;-64
2021/12/31 06:14:58;;;;;;;25.90;11.15;;;;;;;9.05;100.00;98749.34;2144949;83;20991;-64
2021/12/31 06:17:57;;;;;;;23.18;9.28;;;;;;;9.05;100.00;98745.41;2118456;83;21036;-64
2021/12/31 06:20:57;;;;;;;24.87;10.20;;;;;;;9.07;100.00;98756.66;2144923;82;20984;-62
2021/12/31 06:23:58;;;;;;;23.00;9.08;;;;;;;9.09;100.00;98746.93;2145053;83;20979;-64
2021/12/31 06:26:58;;;;;;;22.10;9.10;;;;;;;9.11;100.00;98760.79;2144764;83;21034;-64
2021/12/31 06:29:58;;;;;;;22.15;8.78;;;;;;;9.11;100.00;98749.84;2144895;83;20988;-63
2021/12/31 06:33:00;;;;;;;23.65;8.80;;;;;;;9.14;100.00;98760.61;2146279;83;21076;-63
2021/12/31 06:36:01;;;;;;;23.52;9.18;;;;;;;9.13;100.00;98755.83;2148824;83;21043;-64
2021/12/31 06:39:03;;;;;;;22.60;8.45;;;;;;;9.14;100.00;98750.14;2148362;83;21466;-64
2021/12/31 06:42:07;;;;;;;24.15;9.30;;;;;;;9.17;100.00;98756.51;2148104;83;21082;-63
2021/12/31 06:45:06;;;;;;;24.55;9.23;;;;;;;9.18;100.00;98753.80;2123977;83;21023;-64
2021/12/31 06:48:07;;;;;;;22.35;8.53;;;;;;;9.17;100.00;98749.48;2148593;83;21518;-63
2021/12/31 06:51:07;;;;;;;23.73;8.15;;;;;;;9.17;100.00;98749.48;2148538;83;21028;-64
2021/12/31 06:54:07;;;;;;;23.27;8.28;;;;;;;9.18;100.00;98755.59;2148314;83;20963;-63
2021/12/31 06:57:08;;;;;;;21.27;7.75;;;;;;;9.16;100.00;98763.50;2148421;83;20967;-63
2021/12/31 07:00:09;;;;;;;20.90;6.95;;;;;;;9.18;100.00;98755.59;2148207;83;20980;-63
2021/12/31 07:03:09;;;;;;;19.95;6.50;;;;;;;9.19;100.00;98753.33;2148309;83;21095;-63
2021/12/31 07:06:10;;;;;;;20.95;6.95;;;;;;;9.21;100.00;98754.10;2148134;83;21094;-63
2021/12/31 07:09:11;;;;;;;19.42;6.70;;;;;;;9.19;100.00;98754.64;2148250;83;21046;-62
2021/12/31 07:12:11;;;;;;;19.32;7.00;;;;;;;9.19;100.00;98763.35;2148550;83;21022;-63
2021/12/31 07:15:12;;;;;;;19.77;6.30;;;;;;;9.20;100.00;98756.33;2148299;83;21035;-63
2021/12/31 07:18:12;;;;;;;19.80;6.60;;;;;;;9.22;100.00;98756.24;2148419;83;21008;-63
2021/12/31 07:21:13;;;;;;;19.98;7.17;;;;;;;9.21;100.00;98764.57;2148122;83;21047;-62
2021/12/31 07:24:13;;;;;;;19.55;6.10;;;;;;;9.23;100.00;98768.41;2148415;83;21470;-63
2021/12/31 07:27:14;;;;;;;18.55;6.10;;;;;;;9.22;100.00;98766.23;2148740;83;21011;-63
2021/12/31 07:30:16;;;;;;;19.90;5.33;;;;;;;9.25;100.00;98771.33;2148581;83;20995;-63
2021/12/31 07:33:17;;;;;;;16.82;5.22;;;;;;;9.28;100.00;98780.31;2148299;83;21035;-63
2021/12/31 07:36:17;;;;;;;16.35;4.78;;;;;;;9.28;100.00;98771.14;2148463;83;21664;-63
2021/12/31 07:39:20;;;;;;;19.37;5.37;;;;;;;9.30;100.00;98776.30;2148523;83;21017;-63
2021/12/31 07:42:20;;;;;;;17.52;5.00;;;;;;;9.28;100.00;98780.75;2124266;83;21049;-63
2021/12/31 07:45:21;;;;;;;17.23;5.25;;;;;;;9.28;100.00;98773.77;2148487;83;21040;-63
2021/12/31 07:48:21;;;;;;;15.95;4.62;;;;;;;9.29;100.00;98781.14;2148409;82;20997;-64
2021/12/31 07:51:22;;;;;;;15.83;4.50;;;;;;;9.30;100.00;98788.91;2148265;83;21526;-63
2021/12/31 07:54:23;;;;;;;14.75;4.30;;;;;;;9.29;100.00;98771.50;2148194;83;21086;-63
2021/12/31 07:57:23;;;;;;;18.00;4.83;;;;;;;9.32;100.00;98796.22;2148632;83;21015;-63
2021/12/31 08:00:24;;;;;;;16.32;4.58;;;;;;;9.36;100.00;98781.17;2148275;83;20992;-64
2021/12/31 08:03:24;;;;;;;14.63;4.08;;;;;;;9.38;100.00;98796.79;2148179;83;21046;-63
2021/12/31 08:06:25;;;;;;;18.75;5.15;;;;;;;9.40;100.00;98783.16;2148555;83;20967;-63
2021/12/31 08:09:25;;;;;;;16.62;4.40;;;;;;;9.41;100.00;98790.92;2148330;83;21035;-63
2021/12/31 08:12:27;;;;;;;16.00;4.58;;;;;;;9.45;100.00;98779.80;2148098;83;20992;-63
2021/12/31 08:15:28;;;;;;;15.70;4.63;;;;;;;9.46;100.00;98782.33;2148705;83;21116;-64
2021/12/31 08:18:28;;;;;;;15.88;4.45;;;;;;;9.47;100.00;98788.42;2148686;83;20984;-63
2021/12/31 08:21:29;;;;;;;16.00;4.97;;;;;;;9.48;100.00;98785.72;2148552;83;20944;-63
2021/12/31 08:24:29;;;;;;;19.65;6.60;;;;;;;9.49;100.00;98792.62;2148566;83;21007;-63
2021/12/31 08:27:29;;;;;;;20.10;5.83;;;;;;;9.51;100.00;98796.02;2148438;83;21003;-63
2021/12/31 08:30:30;;;;;;;20.70;5.83;;;;;;;9.53;100.00;98791.52;2148350;83;21065;-64
2021/12/31 08:33:31;;;;;;;17.57;5.83;;;;;;;9.57;100.00;98790.03;2148155;83;21511;-63
2021/12/31 08:36:31;;;;;;;16.87;5.40;;;;;;;9.58;100.00;98800.41;2148621;83;21032;-62
2021/12/31 08:39:32;;;;;;;16.32;4.95;;;;;;;9.59;100.00;98803.42;2148464;83;20956;-63
2021/12/31 08:42:32;;;;;;;16.27;4.78;;;;;;;9.60;100.00;98809.05;2148466;83;21038;-63
2021/12/31 08:45:33;;;;;;;17.50;4.83;;;;;;;9.59;100.00;98806.03;2148597;83;21045;-63
2021/12/31 08:48:34;;;;;;;17.42;5.10;;;;;;;9.60;100.00;98818.20;2148458;83;20976;-63
2021/12/31 08:51:34;;;;;;;18.55;5.78;;;;;;;9.59;100.00;98826.98;2148424;83;21023;-63
2021/12/31 08:54:34;;;;;;;18.95;5.45;;;;;;;9.57;100.00;98824.94;2148460;83;21040;-64
2021/12/31 08:57:35;;;;;;;14.90;4.53;;;;;;;9.56;100.00;98815.38;2148429;83;21553;-63
2021/12/31 09:00:36;;;;;;;15.40;4.72;;;;;;;9.57;100.00;98839.34;2148507;83;21115;-63
2021/12/31 09:03:37;;;;;;;15.93;5.00;;;;;;;9.59;100.00;98821.75;2148693;83;21526;-64
2021/12/31 09:06:37;;;;;;;17.62;5.28;;;;;;;9.64;100.00;98822.79;2148575;83;20988;-63
2021/12/31 09:09:38;;;;;;;17.05;4.72;;;;;;;9.65;100.00;98818.77;2148574;83;21003;-63
2021/12/31 09:12:38;;;;;;;14.33;4.12;;;;;;;9.66;100.00;98822.25;2148325;83;21031;-64
2021/12/31 09:15:39;;;;;;;16.05;4.90;;;;;;;9.68;100.00;98818.63;2148009;83;21044;-63
2021/12/31 09:18:40;;;;;;;13.58;4.22;;;;;;;9.70;100.00;98820.67;2148388;83;21527;-64
2021/12/31 09:21:40;;;;;;;14.15;4.40;;;;;;;9.73;100.00;98823.59;2148239;83;21435;-63
2021/12/31 09:24:41;;;;;;;12.25;3.87;;;;;;;9.77;100.00;98835.58;2148306;83;21015;-63
2021/12/31 09:27:41;;;;;;;13.43;4.50;;;;;;;9.80;100.00;98827.55;2148054;83;21062;-63
2021/12/31 09:30:41;;;;;;;16.35;4.95;;;;;;;9.85;100.00;98832.51;2148577;83;21019;-63
2021/12/31 09:33:42;;;;;;;16.25;4.85;;;;;;;9.89;100.00;98842.71;2148365;83;21004;-62
2021/12/31 09:36:42;;;;;;;15.98;5.53;;;;;;;9.95;100.00;98835.44;2148654;83;20991;-63
2021/12/31 09:39:43;;;;;;;16.20;5.08;;;;;;;9.98;100.00;98824.30;2148564;83;21007;-63
2021/12/31 09:42:43;;;;;;;16.67;4.83;;;;;;;10.02;100.00;98823.19;2148342;83;20984;-63
2021/12/31 09:45:44;;;;;;;17.65;4.83;;;;;;;10.12;100.00;98833.15;2148499;83;20991;-63
2021/12/31 09:48:45;;;;;;;16.67;4.75;;;;;;;10.17;100.00;98827.15;2148216;83;21000;-63
2021/12/31 09:51:45;;;;;;;16.50;5.08;;;;;;;10.18;100.00;98816.57;2148328;83;21538;-63
2021/12/31 09:54:46;;;;;;;18.75;5.20;;;;;;;10.24;100.00;98817.98;2148187;83;21519;-63
2021/12/31 09:57:46;;;;;;;16.80;5.03;;;;;;;10.33;100.00;98820.08;2148186;83;20987;-62
2021/12/31 10:00:47;;;;;;;18.60;5.90;;;;;;;10.40;100.00;98820.56;2148284;83;21470;-63
2021/12/31 10:03:47;;;;;;;16.93;5.03;;;;;;;10.50;100.00;98819.54;2148451;83;20968;-63
2021/12/31 10:06:48;;;;;;;17.77;5.85;;;;;;;10.54;100.00;98821.05;2148312;83;20969;-63
2021/12/31 10:09:48;;;;;;;18.27;5.37;;;;;;;10.60;100.00;98817.20;2148351;83;20949;-62
2021/12/31 10:12:49;;;;;;;16.50;4.92;;;;;;;10.63;100.00;98822.27;2148320;83;20952;-63
2021/12/31 10:15:51;;;;;;;17.87;5.15;;;;;;;10.64;100.00;98815.61;2148435;83;21066;-64
2021/12/31 10:18:52;;;;;;;17.98;5.60;;;;;;;10.68;100.00;98804.47;2148750;83;21578;-62
2021/12/31 10:21:54;;;;;;;18.67;5.62;;;;;;;10.72;100.00;98808.59;2148272;83;21078;-64
2021/12/31 10:24:54;;;;;;;18.37;5.67;;;;;;;10.77;100.00;98813.55;2148413;83;21076;-62
2021/12/31 10:27:55;;;;;;;19.42;5.95;;;;;;;10.82;100.00;98787.85;2148340;83;21478;-64
2021/12/31 10:30:55;;;;;;;20.82;5.70;;;;;;;10.89;100.00;98796.58;2148344;83;21805;-63
2021/12/31 10:33:56;;;;;;;20.37;5.72;;;;;;;10.97;100.00;98793.94;2146733;83;20984;-63
2021/12/31 10:36:56;;;;;;;19.27;5.65;;;;;;;11.08;100.00;98790.16;2144716;83;21487;-63
2021/12/31 10:39:57;;;;;;;20.17;5.90;;;;;;;11.18;100.00;98802.23;2144779;83;21514;-63
2021/12/31 10:42:58;;;;;;;20.27;5.80;;;;;;;11.22;100.00;98802.39;2144670;83;21534;-63
2021/12/31 10:45:58;;;;;;;16.12;4.60;;;;;;;11.21;100.00;98795.48;2144682;83;20984;-63
2021/12/31 10:49:06;;;;;;;12.88;3.80;;;;;;;11.29;100.00;98826.48;2144587;83;21055;-63
2021/12/31 10:52:05;;;;;;;18.35;4.37;;;;;;;11.38;100.00;98805.73;2117852;83;21015;-63
2021/12/31 10:55:15;;;;;;;14.47;4.22;;;;;;;11.48;100.00;98799.42;2118306;83;21043;-63
2021/12/31 10:58:07;;;;;;;15.03;4.20;;;;;;;11.51;100.00;98797.90;2118454;83;21531;-62
2021/12/31 11:01:08;;;;;;;14.53;3.90;;;;;;;11.50;100.00;98804.56;2144836;83;20995;-63
2021/12/31 11:04:08;;;;;;;9.75;3.37;;;;;;;11.53;100.00;98798.63;2144909;83;21035;-63
2021/12/31 11:07:10;;;;;;;14.35;4.20;;;;;;;11.55;100.00;98806.41;2144973;83;20980;-63
2021/12/31 11:10:10;;;;;;;13.88;3.95;;;;;;;11.63;100.00;98794.93;2144792;83;21007;-64
2021/12/31 11:13:11;;;;;;;13.58;3.67;;;;;;;11.63;100.00;98792.30;2144902;83;21030;-63
2021/12/31 11:16:11;;;;;;;15.18;4.08;;;;;;;11.57;100.00;98780.89;2144949;83;21043;-63
2021/12/31 11:19:12;;;;;;;15.53;4.33;;;;;;;11.53;100.00;98785.49;2145014;83;21022;-63
2021/12/31 11:22:12;;;;;;;17.32;4.42;;;;;;;11.48;100.00;98790.23;2144784;83;21038;-63
2021/12/31 11:25:13;;;;;;;16.00;3.80;;;;;;;11.41;100.00;98796.34;2144488;83;21040;-63
2021/12/31 11:28:13;;;;;;;17.37;4.50;;;;;;;11.39;100.00;98803.48;2144726;83;20965;-63
2021/12/31 11:31:14;;;;;;;19.20;4.85;;;;;;;11.37;100.00;98786.14;2144594;83;21447;-63
2021/12/31 11:34:14;;;;;;;15.58;4.28;;;;;;;11.32;100.00;98786.89;2146090;83;21487;-63
2021/12/31 11:37:15;;;;;;;17.40;4.42;;;;;;;11.25;100.00;98783.84;2148148;83;20977;-62
2021/12/31 11:40:16;;;;;;;19.90;4.85;;;;;;;11.23;100.00;98777.83;2148282;83;21479;-63
2021/12/31 11:43:17;;;;;;;18.60;5.20;;;;;;;11.23;100.00;98777.83;2148185;83;21024;-63
2021/12/31 11:46:21;;;;;;;17.20;5.05;;;;;;;11.24;100.00;98767.23;2148487;83;21072;-63
2021/12/31 11:49:20;;;;;;;18.98;5.17;;;;;;;11.19;100.00;98759.27;2123921;83;21024;-63
2021/12/31 11:52:23;;;;;;;21.80;6.83;;;;;;;11.18;100.00;98751.87;2148322;83;20987;-63
2021/12/31 11:55:23;;;;;;;20.77;5.92;;;;;;;11.12;100.00;98767.17;2148540;83;21023;-63
2021/12/31 11:58:24;;;;;;;21.82;6.37;;;;;;;10.88;100.00;98765.19;2148574;83;20968;-64
2021/12/31 12:01:24;;;;;;;19.90;5.37;;;;;;;10.71;100.00;98755.27;2148294;83;20964;-63
2021/12/31 12:04:25;;;;;;;17.55;4.97;;;;;;;10.61;100.00;98743.67;2148142;83;21039;-62
2021/12/31 12:07:26;;;;;;;21.87;6.50;;;;;;;10.52;100.00;98770.00;2148105;83;21059;-64
2021/12/31 12:10:27;;;;;;;22.45;5.92;;;;;;;10.45;100.00;98756.06;2148413;83;20988;-63
2021/12/31 12:13:28;;;;;;;20.27;5.65;;;;;;;10.37;100.00;98761.76;2147992;83;21042;-64
2021/12/31 12:16:29;;;;;;;21.55;5.85;;;;;;;10.32;100.00;98762.49;2148487;83;21047;-63
2021/12/31 12:19:29;;;;;;;20.90;5.58;;;;;;;10.29;100.00;98750.41;2148569;83;21034;-64
2021/12/31 12:22:31;;;;;;;22.95;6.70;;;;;;;10.28;100.00;98735.61;2148454;83;20984;-62
2021/12/31 12:25:32;;;;;;;21.33;6.22;;;;;;;10.27;100.00;98751.43;2148483;83;21522;-63
2021/12/31 12:28:32;;;;;;;25.50;8.80;;;;;;;10.33;100.00;98741.88;2148365;82;21067;-63
2021/12/31 12:31:38;;;;;;;28.83;11.00;;;;;;;10.35;100.00;98744.81;2148428;83;21009;-63
2021/12/31 12:34:35;;;;;;;27.77;9.55;;;;;;;10.34;100.00;98739.22;2118690;83;20988;-63
2021/12/31 12:37:35;;;;;;;23.67;9.05;;;;;;;10.34;100.00;98723.94;2132951;83;21499;-62
2021/12/31 12:40:36;;;;;;;27.37;8.63;;;;;;;10.35;100.00;98734.80;2132762;83;21592;-62
2021/12/31 12:43:37;;;;;;;29.15;10.90;;;;;;;10.33;100.00;98732.25;2133068;83;21028;-63
2021/12/31 12:46:37;;;;;;;22.13;7.53;;;;;;;10.32;100.00;98731.86;2151712;83;20964;-63
2021/12/31 12:49:40;;;;;;;22.82;7.30;;;;;;;10.30;100.00;98732.44;2119554;84;21003;-64
2021/12/31 12:52:40;;;;;;;22.07;7.72;;;;;;;10.27;100.00;98731.33;2103953;84;21494;-63
2021/12/31 12:55:41;;;;;;;23.15;7.75;;;;;;;10.25;100.00;98718.77;2129643;83;21099;-63
2021/12/31 12:58:41;;;;;;;25.12;9.30;;;;;;;10.26;100.00;98726.14;2129508;84;20956;-63
2021/12/31 13:01:42;;;;;;;27.85;10.72;;;;;;;10.26;100.00;98712.59;2129590;83;21374;-63
2021/12/31 13:04:43;;;;;;;27.13;9.95;;;;;;;10.23;100.00;98716.72;2151455;83;21537;-63
2021/12/31 13:07:45;;;;;;;25.17;9.23;;;;;;;10.21;100.00;98723.36;2118976;84;21056;-63
2021/12/31 13:10:45;;;;;;;25.65;9.25;;;;;;;10.21;100.00;98719.87;2129866;83;21498;-63
2021/12/31 13:13:46;;;;;;;26.82;9.05;;;;;;;10.19;100.00;98708.19;2129867;83;21003;-63
2021/12/31 13:16:47;;;;;;;27.10;9.60;;;;;;;10.20;100.00;98724.30;2129289;83;21036;-62
2021/12/31 13:19:47;;;;;;;24.35;9.15;;;;;;;10.20;100.00;98723.42;2129547;83;20984;-63
2021/12/31 13:22:48;;;;;;;25.45;9.28;;;;;;;10.20;100.00;98722.12;2129573;83;21024;-62
2021/12/31 13:25:50;;;;;;;24.87;8.78;;;;;;;10.17;100.00;98732.34;2129609;83;21011;-63
2021/12/31 13:28:50;;;;;;;24.05;7.70;;;;;;;10.17;100.00;98724.48;2129583;83;21014;-63
2021/12/31 13:31:51;;;;;;;23.47;7.92;;;;;;;10.17;100.00;98738.90;2129405;84;21479;-62
2021/12/31 13:34:51;;;;;;;23.87;8.55;;;;;;;10.21;100.00;98735.61;2132667;83;21064;-64
2021/12/31 13:37:52;;;;;;;22.85;8.15;;;;;;;10.21;100.00;98722.50;2137835;83;21547;-63
2021/12/31 13:40:54;;;;;;;26.55;9.70;;;;;;;10.20;100.00;98744.40;2137973;83;21119;-62
2021/12/31 13:43:54;;;;;;;27.35;9.83;;;;;;;10.20;100.00;98740.47;2137805;83;21617;-64
2021/12/31 13:46:55;;;;;;;27.20;10.85;;;;;;;10.20;100.00;98743.95;2136156;83;21020;-64
2021/12/31 13:49:55;;;;;;;34.65;13.88;;;;;;;10.19;100.00;98734.39;2136079;83;21051;-63
2021/12/31 13:52:56;;;;;;;28.25;11.05;;;;;;;10.18;100.00;98741.04;2136349;83;20999;-64
2021/12/31 13:55:59;;;;;;;30.20;11.53;;;;;;;10.18;100.00;98743.66;2136567;82;20988;-63
2021/12/31 13:58:59;;;;;;;27.90;10.58;;;;;;;10.18;100.00;98743.66;2109108;83;20965;-63
2021/12/31 14:02:00;;;;;;;34.75;14.63;;;;;;;10.15;100.00;98736.82;2147785;83;21047;-63